East Cowes, United Kingdom
Current Conditions -  °F | °C
As of 5:50 PM on Friday 24 Oct 2014 (Local Time) from EGHI Reporting Station
Broken Clouds Broken Clouds  
Wind Chill: 59°   Ceiling: 2200
Heat Index: 59°   Visibility: 6mi
Dew Point: 55°   Wind: 8mph
Humidity: 88%   Direction: 230°SW
Pressure: 29.91"   Gusts: NA
Location:  50.76°N, 1.29°W
Report Text: EGHI 241650Z 23007KT 9999 FEW016 BKN022 15/13 Q1013
Loading
Personal Weather Stations






























Interactive Weather Map
Tropical Storm Tracking
New forecast layout! Learn more

10-Day Weather Forecast

Advertisements
Track Severe Weather on mobile